Latest Weather Observations for Falls Creek

IDV60801

Issued at 6:52 am EST Thursday 20 June 2019 (issued every 10 minutes, with the page automatically refreshed every 10 minutes)

About weather observations | Map of weather stations | Latest weather observations for VIC | Other Formats
Station Details ID: 083084 Name: FALLS CREEK Lat: -36.87 Lon: 147.28 Height: 1765.0 m
Data from the previous 72 hours. | See also: Recent months at Falls Creek
Date/Time
EST
Temp
°C
App
Temp
°C
Dew
Point
°C
Rel
Hum
%
Delta-T
°C
Wind Press
QNH
hPa
Press
MSL
hPa
Rain since
9am
mm
Dir  Spd
km/h
Gust
km/h
Spd
kts
Gust
kts
20/06:30am -6.8 -11.0 -7.7 93 0.0 SSE 7 9 4 5 1019.9 1021.5 0.0
20/06:00am -7.0 -11.2 -7.9 93 0.0 SSE 7 9 4 5 1019.8 1021.4 0.0
20/05:30am -6.9 -11.5 -7.8 93 0.0 SE 9 11 5 6 1019.6 1021.3 0.0
20/05:00am -6.6 -11.5 -7.5 93 0.0 SE 11 17 6 9 1019.8 1021.4 0.0
20/04:30am -6.6 -11.2 -7.5 93 0.0 SSE 9 11 5 6 1019.9 1021.5 0.0
20/04:00am -6.6 -11.2 -7.5 93 0.0 SE 9 13 5 7 1019.9 1021.5 0.0
20/03:30am -6.7 -11.6 -7.6 93 0.0 SE 11 15 6 8 1020.2 1021.9 0.0
20/03:00am -6.6 -10.8 -7.4 94 0.0 SSE 7 9 4 5 1020.3 1022.0 0.0
20/02:30am -7.8 -12.5 -8.9 92 0.0 S 9 13 5 7 1020.5 1022.1 0.0
20/02:00am -6.9 -11.9 -7.8 93 0.0 S 11 11 6 6 1020.5 1022.1 0.0
20/01:30am -5.8 -11.0 -6.6 94 0.0 S 13 15 7 8 1020.5 1022.1 0.0
20/01:00am -5.5 -11.5 -6.3 94 0.0 S 17 22 9 12 1020.5 1022.1 0.0
20/12:30am -5.4 -11.9 -6.2 94 0.0 S 20 24 11 13 1020.5 1022.1 0.0
20/12:00am -5.1 -12.4 -5.8 95 0.0 S 24 30 13 16 1020.5 1022.1 0.0
 
Date/Time
EST
Temp
°C
App
Temp
°C
Dew
Point
°C
Rel
Hum
%
Delta-T
°C
Wind Press
QNH
hPa
Press
MSL
hPa
Rain since
9am
mm
Dir  Spd
km/h
Gust
km/h
Spd
kts
Gust
kts
19/11:30pm -4.9 -11.4 -5.6 95 0.0 S 20 26 11 14 1020.8 1022.5 0.0
19/11:00pm -5.2 -11.7 -5.9 95 0.0 S 20 24 11 13 1020.8 1022.5 0.0
19/10:30pm -5.2 -11.7 -5.9 95 0.0 S 20 26 11 14 1020.9 1022.6 0.0
19/10:00pm -4.8 -11.3 -5.5 95 0.0 SSE 20 28 11 15 1020.9 1022.6 0.0
19/09:30pm -4.7 -11.1 -5.2 96 0.0 S 20 26 11 14 1020.7 1022.4 0.0
19/09:00pm -4.8 -12.4 -5.2 97 -0.1 S 26 32 14 17 1020.6 1022.3 0.0
19/08:30pm -4.7 -11.5 -5.5 94 0.1 SSE 22 28 12 15 1020.9 1022.6 0.0
19/08:00pm -4.7 -10.6 -5.5 94 0.1 S 17 22 9 12 1021.2 1022.9 0.0
19/07:30pm -4.9 -11.2 -5.9 93 0.1 S 19 20 10 11 1021.2 1022.9 0.0
19/07:00pm -4.7 -11.6 -5.8 92 0.2 S 22 26 12 14 1021.2 1022.9 0.0
19/06:30pm -4.9 -8.9 -5.9 93 0.1 S 7 11 4 6 1021.3 1023.0 0.0
19/06:00pm -4.2 -8.2 -5.4 91 0.2 S 7 11 4 6 1021.2 1022.9 0.0
19/05:30pm -3.5 -7.4 -4.6 92 0.2 SSW 7 9 4 5 1021.2 1022.9 0.0
19/05:00pm -3.2 -6.5 -4.5 91 0.3 S 4 7 2 4 1021.1 1022.7 0.0
19/04:30pm -2.9 -6.8 -4.8 87 0.5 SSW 7 9 4 5 1020.9 1022.6 0.0
19/04:00pm -2.2 -6.1 -4.5 84 0.7 SSW 7 9 4 5 1020.8 1022.5 0.0
19/03:30pm -1.7 -4.9 -3.6 87 0.6 SW 4 7 2 4 1020.7 1022.4 0.0
19/03:00pm -1.7 -5.2 -2.7 93 0.3 WSW 6 9 3 5 1020.6 1022.3 0.0
19/02:30pm -1.3 -5.0 -4.3 80 1.0 SW 6 7 3 4 1020.5 1022.1 0.0
19/02:00pm -1.3 -5.6 -5.1 75 1.3 SSW 9 11 5 6 1020.5 1022.1 0.0
19/01:30pm -1.4 -5.8 -5.8 72 1.5 SSW 9 13 5 7 1020.5 1022.1 0.0
19/01:00pm -1.4 -5.3 -4.7 78 1.1 SSW 7 13 4 7 1020.5 1022.1 0.0
19/12:30pm -1.7 -6.0 -5.0 78 1.1 SSW 9 15 5 8 1020.6 1022.3 0.0
19/12:00pm -2.1 -6.4 -5.1 80 0.9 SSW 9 13 5 7 1020.8 1022.5 0.0
19/11:30am -2.2 -6.9 -5.2 80 0.9 S 11 13 6 7 1021.1 1022.7 0.0
19/11:00am -2.7 -7.8 -5.3 82 0.8 S 13 17 7 9 1021.1 1022.7 0.0
19/10:30am -3.1 -9.4 -5.7 82 0.7 S 19 26 10 14 1021.1 1022.7 0.0
19/10:00am -3.3 -7.3 -5.9 82 0.7 SSE 7 11 4 6 1020.7 1022.4 0.0
19/09:30am -4.0 -9.5 -5.7 88 0.4 S 15 22 8 12 1020.2 1021.9 0.0
19/09:00am -4.4 -10.0 -6.5 85 0.5 SSW 15 22 8 12 1020.1 1021.8 7.0
19/08:30am -5.7 -11.8 -7.7 86 0.4 SSW 17 19 9 10 1019.8 1021.4 7.0
19/08:00am -5.8 -12.8 -7.6 87 0.3 SSW 22 24 12 13 1019.4 1021.0 7.0
19/07:30am -5.5 -13.3 -8.1 82 0.6 SSW 26 32 14 17 1018.7 1020.3 7.0
19/07:00am -5.1 -13.3 -7.4 84 0.5 SSW 28 35 15 19 1018.4 1020.0 7.0
19/06:30am -5.1 -12.5 -7.2 85 0.5 SSW 24 32 13 17 1018.1 1019.6 7.0
19/06:00am -5.0 -13.1 -6.4 90 0.2 SSW 28 32 15 17 1017.7 1019.3 7.0
19/05:30am -5.5 -13.3 -7.2 88 0.3 SSW 26 32 14 17 1017.5 1019.0 7.0
19/05:00am -6.0 -13.4 -7.8 87 0.3 SSW 24 28 13 15 1017.4 1018.9 7.0
19/04:30am -5.6 -13.8 -7.3 88 0.3 SSW 28 32 15 17 1017.4 1018.9 7.0
19/04:00am -5.7 -13.4 -6.9 91 0.1 SSW 26 28 14 15 1017.3 1018.8 7.0
19/03:30am -5.7 -12.7 -7.1 90 0.2 SSW 22 26 12 14 1017.3 1018.8 7.0
19/03:00am -5.5 -12.5 -7.2 88 0.3 SSW 22 26 12 14 1017.3 1018.8 7.0
19/02:30am -5.6 -12.2 -7.1 89 0.2 SSW 20 24 11 13 1017.5 1019.0 7.0
19/02:00am -6.0 -12.6 -7.2 91 0.1 SSW 20 20 11 11 1017.4 1018.9 7.0
19/01:30am -5.8 -12.2 -6.9 92 0.1 SSW 19 22 10 12 1017.4 1018.9 7.0
19/01:00am -6.2 -12.6 -7.3 92 0.1 SSW 19 20 10 11 1017.3 1018.8 7.0
19/12:30am -5.7 -11.7 -6.5 94 0.0 SSW 17 20 9 11 1017.3 1018.8 7.0
19/12:00am -5.2 -10.0 -6.0 94 0.0 SSW 11 11 6 6 1017.4 1018.9 7.0
 
Date/Time
EST
Temp
°C
App
Temp
°C
Dew
Point
°C
Rel
Hum
%
Delta-T
°C
Wind Press
QNH
hPa
Press
MSL
hPa
Rain since
9am
mm
Dir  Spd
km/h
Gust
km/h
Spd
kts
Gust
kts
18/11:30pm -4.6 -9.3 -5.3 95 0.0 SW 11 17 6 9 1017.6 1019.1 7.0
18/11:00pm -4.4 -9.1 -5.1 95 0.0 SSW 11 11 6 6 1017.5 1019.0 7.0
18/10:30pm -3.7 -8.3 -4.2 96 0.0 SSW 11 17 6 9 1017.4 1018.9 7.0
18/10:00pm -3.8 -10.1 -4.3 96 0.0 SSW 20 26 11 14 1017.1 1018.7 7.0
18/09:30pm -3.7 -9.1 -4.2 96 0.0 SSW 15 19 8 10 1017.0 1018.5 7.0
18/09:00pm -3.3 -8.2 -3.7 97 0.0 SW 13 19 7 10 1017.0 1018.5 7.0
18/08:30pm -2.9 -7.4 -3.3 97 0.0 WSW 11 17 6 9 1017.0 1018.5 7.0
18/08:00pm -2.4 -6.5 -2.7 98 0.0 WSW 9 11 5 6 1017.1 1018.7 6.8
18/07:30pm -2.2 -6.2 -2.5 98 0.0 WNW 9 11 5 6 1017.0 1018.5 6.6
18/07:00pm -2.5 -6.6 -2.8 98 0.0 NW 9 11 5 6 1016.7 1018.2 5.6
18/06:30pm -2.5 -8.1 -2.8 98 0.0 WNW 17 24 9 13 1016.5 1018.0 5.6
18/06:00pm -1.7 -8.1 -2.0 98 0.0 WNW 22 37 12 20 1015.9 1017.4 5.6
18/05:30pm -1.3 -7.3 -1.6 98 0.0 NW 20 35 11 19 1015.4 1016.8 5.0
18/05:00pm -1.2 -8.0 -1.5 98 0.1 NNW 24 37 13 20 1015.1 1016.5 4.4
18/04:30pm -1.2 -7.9 -1.3 99 0.0 NW 24 37 13 20 1014.8 1016.2 3.6
18/04:00pm -1.0 -7.7 -1.1 99 0.0 NNW 24 39 13 21 1014.4 1015.8 3.0
18/03:30pm -0.7 -8.5 -0.8 99 0.0 NNW 30 39 16 21 1013.9 1015.3 2.2
18/03:08pm -0.6 -9.0 -0.7 99 0.0 NNW 33 54 18 29 1014.0 1015.4 1.6
18/03:00pm -0.6 -9.0 -0.7 99 0.0 NNW 33 39 18 21 1013.9 1015.3 1.6
18/02:50pm -0.7 -8.9 -1.0 98 0.1 NNW 32 50 17 27 1014.0 1015.4 1.6
18/02:30pm -0.7 -9.4 -0.8 99 0.0 NNW 35 50 19 27 1013.8 1015.2 1.6
18/02:17pm -0.8 -9.6 -0.9 99 0.0 NNW 35 54 19 29 1013.8 1015.2 1.6
18/02:00pm -0.9 -9.7 -1.2 98 0.1 NNW 35 48 19 26 1013.8 1015.2 1.6
18/01:30pm -1.2 -10.4 -1.5 98 0.1 NNW 37 57 20 31 1014.0 1015.4 1.2
18/01:21pm -1.3 -10.2 -1.6 98 0.0 NNW 35 54 19 29 1014.3 1015.7 1.2
18/01:00pm -1.3 -10.9 -1.6 98 0.0 NNW 39 52 21 28 1014.6 1016.0 1.0
18/12:58pm -1.3 -10.9 -1.6 98 0.0 NNW 39 57 21 31 1014.6 1016.0 1.0
18/12:30pm -1.5 -10.4 -1.8 98 0.0 NNW 35 48 19 26 1015.0 1016.4 0.6
18/12:00pm -1.6 -10.5 -1.9 98 0.0 NNW 35 50 19 27 1015.2 1016.7 0.4
18/11:30am -1.6 -10.9 -1.9 98 0.0 NNW 37 52 20 28 1015.7 1017.2 0.0
18/11:00am -1.8 -10.7 -2.1 98 0.0 NNW 35 52 19 28 1016.1 1017.5 0.0
18/10:45am -1.9 -10.8 -2.2 98 0.0 NNW 35 54 19 29 1016.1 1017.5 0.0
18/10:30am -1.9 -11.2 -2.2 98 0.0 NNW 37 48 20 26 1016.3 1017.8 0.0
18/10:07am -1.9 -10.3 -2.2 98 0.0 NNW 32 50 17 27 1016.5 1018.0 0.0
18/10:00am -1.9 -10.3 -2.2 98 0.0 NNW 32 44 17 24 1016.7 1018.2 0.0
18/09:30am -1.9 -9.9 -2.2 98 0.0 NNW 30 43 16 23 1016.9 1018.4 0.0
18/09:00am -1.8 -9.8 -2.1 98 0.0 NNW 30 44 16 24 1016.8 1018.3 0.0
18/08:30am -2.0 -10.4 -2.3 98 0.0 NNW 32 41 17 22 1016.8 1018.3 0.0
18/08:00am -1.9 -10.3 -2.2 98 0.0 NNW 32 43 17 23 1016.7 1018.2 0.0
18/07:30am -1.9 -9.9 -2.2 98 0.0 NNW 30 37 16 20 1016.9 1018.4 0.0
18/07:00am -1.7 -9.7 -2.0 98 0.0 NNW 30 43 16 23 1017.0 1018.5 0.0
18/06:30am -1.8 -9.0 -2.1 98 0.0 NNW 26 37 14 20 1017.0 1018.5 0.0
18/06:00am -1.6 -8.8 -1.9 98 0.0 NNW 26 35 14 19 1017.0 1018.5 0.0
18/05:30am -1.4 -8.5 -1.5 99 0.0 NNW 26 35 14 19 1017.0 1018.5 0.0
18/05:00am -1.4 -8.6 -1.7 98 0.0 NNW 26 37 14 20 1017.1 1018.7 0.0
18/04:30am -1.5 -8.7 -1.8 98 0.0 NNW 26 35 14 19 1017.5 1019.0 0.0
18/04:00am -1.4 -9.3 -1.5 99 0.0 NNW 30 39 16 21 1017.6 1019.1 0.0
18/03:30am -1.0 -8.5 -1.1 99 0.0 NNW 28 39 15 21 1017.9 1019.4 0.0
18/03:00am -1.2 -9.1 -1.5 98 0.1 NNW 30 39 16 21 1018.1 1019.6 0.0
18/02:30am -1.3 -9.2 -1.6 98 0.0 NNW 30 43 16 23 1018.1 1019.6 0.0
18/02:00am -1.5 -9.8 -1.9 97 0.1 NNW 32 43 17 23 1018.1 1019.6 0.0
18/01:30am -1.4 -9.8 -2.4 93 0.3 NNW 32 41 17 22 1018.2 1019.8 0.0
18/01:00am -1.3 -9.7 -2.7 90 0.5 NNW 32 41 17 22 1018.3 1019.9 0.0
18/12:30am -1.2 -9.2 -2.5 91 0.4 NNW 30 37 16 20 1018.6 1020.1 0.0
18/12:00am -1.3 -9.3 -2.7 90 0.5 NNW 30 37 16 20 1019.2 1020.8 0.0
 
Date/Time
EST
Temp
°C
App
Temp
°C
Dew
Point
°C
Rel
Hum
%
Delta-T
°C
Wind Press
QNH
hPa
Press
MSL
hPa
Rain since
9am
mm
Dir  Spd
km/h
Gust
km/h
Spd
kts
Gust
kts
17/11:30pm -1.3 -8.6 -2.9 89 0.5 NNW 26 35 14 19 1019.5 1021.1 0.0
17/11:00pm -1.3 -8.4 -1.6 98 0.0 NNW 26 33 14 18 1019.6 1021.3 0.0
17/10:30pm -1.0 -8.1 -1.1 99 0.0 NNW 26 35 14 19 1020.1 1021.8 0.0
17/10:00pm -1.0 -7.4 -1.4 97 0.1 NNW 22 28 12 15 1020.3 1022.0 0.0
17/09:30pm -0.9 -6.9 -1.6 95 0.2 NNW 20 28 11 15 1020.6 1022.3 0.0
17/09:00pm -0.9 -6.3 -1.0 99 0.0 NNW 17 22 9 12 1020.7 1022.4 0.0
17/08:30pm -1.1 -5.7 -1.4 98 0.1 NW 13 19 7 10 1020.7 1022.4 0.0
17/08:00pm -0.8 -5.4 -0.9 99 0.0 NW 13 24 7 13 1021.1 1022.7 0.0
17/07:30pm -0.7 -4.5 -0.8 99 0.0 NNW 9 17 5 9 1021.1 1022.7 0.0
17/07:00pm -0.7 -4.9 -1.0 98 0.1 NNW 11 13 6 7 1021.1 1022.7 0.0
17/06:30pm -0.5 -4.3 -0.8 98 0.1 NNW 9 15 5 8 1020.8 1022.5 0.0
17/06:00pm -0.2 -4.0 -0.6 97 0.1 NNW 9 13 5 7 1020.8 1022.5 0.0
17/05:30pm 0.2 -3.6 -0.4 96 0.3 NW 9 15 5 8 1020.7 1022.4 0.0
17/05:00pm 0.5 -3.2 -0.2 95 0.3 NW 9 13 5 7 1020.7 1022.4 0.0
17/04:30pm 0.9 -2.8 -0.1 93 0.4 NW 9 15 5 8 1020.7 1022.4 0.0
17/04:00pm 1.4 -2.3 0.2 92 0.5 N 9 13 5 7 1020.8 1022.5 0.0
17/03:30pm 2.1 -1.6 0.2 87 0.8 NW 9 17 5 9 1020.8 1022.5 0.0
17/03:00pm 3.4 -0.3 0.1 79 1.4 NW 9 15 5 8 1020.8 1022.5 0.0
17/02:30pm 4.2 0.6 0.7 78 1.5 NNW 9 17 5 9 1020.6 1022.3 0.0
17/02:00pm 3.5 -0.2 0.2 79 1.4 NW 9 15 5 8 1020.7 1022.4 0.0
17/01:30pm 4.6 1.0 0.4 74 1.8 NNW 9 15 5 8 1020.9 1022.6 0.0
17/01:00pm 3.5 0.2 -0.1 77 1.5 W 7 11 4 6 1021.3 1023.0 0.0
17/12:30pm 4.8 0.4 -2.1 61 2.8 ENE 11 15 6 8 1021.3 1023.0 0.0
17/12:00pm 4.0 1.0 -2.0 65 2.4 ESE 4 7 2 4 1021.9 1023.6 0.0
17/11:30am 2.4 -0.7 -2.3 71 1.9 SE 4 7 2 4 1022.3 1024.0 0.0
17/11:00am 1.9 -1.5 -1.7 77 1.4 SE 6 9 3 5 1022.5 1024.2 0.0
17/10:30am 1.4 -2.0 -1.7 80 1.2 SE 6 11 3 6 1022.7 1024.5 0.0
17/10:00am 0.6 -5.0 -2.6 79 1.3 SSE 17 20 9 11 1022.5 1024.2 0.0
17/09:30am -0.2 -5.6 -1.6 90 0.5 SSE 17 20 9 11 1022.1 1023.9 0.0
17/09:00am -0.6 -6.1 -1.9 91 0.5 SSE 17 22 9 12 1022.1 1023.9 0.0
17/08:30am -1.0 -7.0 -1.8 94 0.3 SSE 20 26 11 14 1021.8 1023.5 0.0
17/08:00am -1.4 -7.5 -2.1 95 0.2 SSE 20 26 11 14 1021.7 1023.4 0.0
17/07:30am -1.4 -7.9 -2.1 95 0.2 SSE 22 28 12 15 1021.3 1023.0 0.0
17/07:00am -1.7 -7.8 -2.0 98 0.0 SSE 20 26 11 14 1021.3 1023.0 0.0

Other formats

Comma delimited format used in spreadsheet applications
http://www.bom.gov.au/fwo/IDV60801/IDV60801.94903.axf

JavaScript Object Notation format (JSON) in row-major order
http://www.bom.gov.au/fwo/IDV60801/IDV60801.94903.json

Data quality

Most of these data are generated automatically and are frequently updated. Quality checks on data are not normally performed. It is possible for incorrect values to appear. Refer to information at About Latest Weather Observations and please check the disclaimer before using these data.